Impacts METAR Board INFO
IDs:

KMIA - Miami Intl, FL, US

Updated at: 1447 UTC 22 Nov 2017
Potential Impact None Slight Moderate High
Time22/02Z 22/03Z 22/04Z 22/05Z 22/06Z 22/07Z 22/08Z 22/09Z 22/10Z 22/11Z 22/12Z 22/13Z 22/14Z
VIS10 10 10 10 10 10 10 10 10 10 10 10 10
CIG-- -- 70 70 -- -- -- -- -- -- -- -- --
CoverFEWFEWBKNBKNFEWFEWFEWCLRCLRCLRFEWFEWFEW
FltCatVFRVFRVFRVFRVFRVFRVFRVFRVFRVFRVFRVFRVFR
WX--------------------------
WDir1300000000000040
WSpd3 0 0 0 0 0 0 0 0 0 0 0 3
WGst-- -- -- -- -- -- -- -- -- -- -- -- --
Raw hourly METARs
KMIA 220153Z 13003KT 10SM FEW025 FEW075 25/22 A2993 RMK AO2 SLP137 T02500217
KMIA 220253Z 00000KT 10SM FEW025 FEW075 25/22 A2995 RMK AO2 SLP141 T02500217 53008
KMIA 220353Z 00000KT 10SM FEW025 BKN070 BKN250 25/22 A2995 RMK AO2 SLP142 T02500217
KMIA 220453Z 00000KT 10SM FEW025 BKN070 BKN200 24/22 A2994 RMK AO2 SLP139 T02440217 402940217
KMIA 220553Z 00000KT 10SM FEW025 FEW070 23/21 A2992 RMK AO2 SLP133 T02280211 10256 20222 58008
KMIA 220653Z 00000KT 10SM FEW025 22/21 A2991 RMK AO2 SLP128 T02170211
KMIA 220753Z 00000KT 10SM FEW020 22/21 A2991 RMK AO2 SLP127 T02170211
KMIA 220853Z 00000KT 10SM CLR 22/21 A2991 RMK AO2 SLP128 T02170211 55004
KMIA 220953Z 00000KT 10SM CLR 22/21 A2991 RMK AO2 SLP129 T02170211
KMIA 221053Z 00000KT 10SM CLR 22/21 A2991 RMK AO2 SLP130 T02170206
KMIA 221153Z 00000KT 10SM FEW010 FEW020 FEW250 22/21 A2993 RMK AO2 SLP136 T02220211 10228 20211 53007
KMIA 221253Z 00000KT 10SM FEW010 FEW025 24/22 A2995 RMK AO2 SLP140 T02390217
KMIA 221353Z COR 04003KT 10SM FEW025 26/22 A2996 RMK AO2 SLP144 T02560217